Time;durP1;ratioP1;P1;durP2;ratioP2;P2;SDS_P1;SDS_P2;PMS_P1;PMS_P2;Temp;Humidity;BMP_temperature;BMP_pressure;BME280_temperature;BME280_humidity;BME280_pressure;Samples;Min_cycle;Max_cycle;Signal;HPM_P1;HPM_P2
2024/03/15 00:02:14;;;;;;;5.20;1.05;;;10.80;99.90;;;;;;5011985;28;20391;-94
2024/03/15 00:04:41;;;;;;;7.18;1.02;;;10.70;99.90;;;;;;5011961;28;20041;-92
2024/03/15 00:07:07;;;;;;;4.25;0.90;;;10.70;99.90;;;;;;4994805;28;20113;-93
2024/03/15 00:09:33;;;;;;;4.22;0.82;;;10.70;99.90;;;;;;4994751;28;20104;-94
2024/03/15 00:12:01;;;;;;;5.43;0.73;;;10.70;99.90;;;;;;5013579;28;20491;-93
2024/03/15 00:14:27;;;;;;;2.65;0.70;;;10.70;99.90;;;;;;5016579;28;20042;-93
2024/03/15 00:16:56;;;;;;;6.32;1.02;;;10.70;99.90;;;;;;5015543;28;20033;-92
2024/03/15 00:19:22;;;;;;;7.70;1.10;;;10.70;99.90;;;;;;4999102;28;20033;-93
2024/03/15 00:21:51;;;;;;;10.45;1.67;;;10.70;99.90;;;;;;4996379;28;20399;-94
2024/03/15 00:24:17;;;;;;;6.78;1.35;;;10.80;99.90;;;;;;5013247;28;20026;-94
2024/03/15 00:26:43;;;;;;;11.30;1.35;;;10.80;99.90;;;;;;4995615;28;20041;-94
2024/03/15 00:29:11;;;;;;;10.32;1.58;;;10.80;99.90;;;;;;4994643;28;20018;-94
2024/03/15 00:31:40;;;;;;;5.63;0.90;;;10.80;99.90;;;;;;4994505;28;20049;-92
2024/03/15 00:34:09;;;;;;;8.57;1.08;;;10.80;99.90;;;;;;4995022;28;20026;-94
2024/03/15 00:36:35;;;;;;;8.13;1.02;;;10.70;99.90;;;;;;5012111;28;20033;-92
2024/03/15 00:39:05;;;;;;;9.60;1.88;;;10.70;99.90;;;;;;4995011;28;20025;-93
2024/03/15 00:41:32;;;;;;;7.72;1.73;;;10.70;99.90;;;;;;5011161;28;20054;-91
2024/03/15 00:43:58;;;;;;;10.95;1.85;;;10.60;99.90;;;;;;5012240;28;20021;-93
2024/03/15 00:46:24;;;;;;;9.63;1.35;;;10.70;99.90;;;;;;4994755;28;20057;-94
2024/03/15 00:48:53;;;;;;;11.57;1.70;;;10.70;99.90;;;;;;4994430;28;20017;-93
2024/03/15 00:51:19;;;;;;;9.90;1.63;;;10.70;99.90;;;;;;4993493;28;20057;-93
2024/03/15 00:53:45;;;;;;;9.60;1.33;;;10.70;99.90;;;;;;5010654;28;20022;-92
2024/03/15 00:56:10;;;;;;;12.10;2.05;;;10.70;99.90;;;;;;5011925;28;20036;-94
2024/03/15 00:58:36;;;;;;;13.05;1.88;;;10.70;99.90;;;;;;4994739;28;20016;-91
2024/03/15 01:01:04;;;;;;;14.77;1.55;;;10.70;99.90;;;;;;4995384;28;20025;-92
2024/03/15 01:03:31;;;;;;;6.90;0.98;;;10.60;99.90;;;;;;5012136;28;20013;-93
2024/03/15 01:05:56;;;;;;;7.55;1.38;;;10.60;99.90;;;;;;5013800;28;20026;-93
2024/03/15 01:08:22;;;;;;;10.00;1.80;;;10.60;99.90;;;;;;4994521;28;20033;-93
2024/03/15 01:10:48;;;;;;;9.88;1.58;;;10.60;99.90;;;;;;4994673;28;20022;-95
2024/03/15 01:13:14;;;;;;;11.45;1.75;;;10.60;99.90;;;;;;4994482;28;20114;-92
2024/03/15 01:15:42;;;;;;;11.73;1.40;;;10.60;99.90;;;;;;4993520;28;20048;-94
2024/03/15 01:18:09;;;;;;;12.85;2.15;;;10.60;99.90;;;;;;4995738;28;20026;-92
2024/03/15 01:20:35;;;;;;;7.30;1.40;;;10.60;99.90;;;;;;5011466;28;20040;-92
2024/03/15 01:23:02;;;;;;;13.65;1.38;;;10.50;99.90;;;;;;4994827;28;20109;-94
2024/03/15 01:25:29;;;;;;;15.05;2.03;;;10.60;99.90;;;;;;5016426;28;20022;-94
2024/03/15 01:27:57;;;;;;;12.77;1.90;;;10.50;99.90;;;;;;4997122;28;20109;-94
2024/03/15 01:30:23;;;;;;;15.25;1.77;;;10.50;99.90;;;;;;4994614;28;20052;-93
2024/03/15 01:32:49;;;;;;;11.90;1.70;;;10.50;99.90;;;;;;5011714;28;20050;-93
2024/03/15 01:35:16;;;;;;;14.55;2.17;;;10.50;99.90;;;;;;4997981;28;20022;-93
2024/03/15 01:37:45;;;;;;;14.88;1.88;;;10.50;99.90;;;;;;4997687;28;20110;-93
2024/03/15 01:40:15;;;;;;;9.93;1.35;;;10.50;99.90;;;;;;4994465;28;20388;-94
2024/03/15 01:42:41;;;;;;;16.65;2.33;;;10.40;99.90;;;;;;4992519;28;20055;-94
2024/03/15 01:45:09;;;;;;;11.30;1.83;;;10.40;99.90;;;;;;5011157;28;20467;-93
2024/03/15 01:47:36;;;;;;;9.85;2.05;;;10.40;99.90;;;;;;5017164;28;20128;-93
2024/03/15 01:50:02;;;;;;;10.35;1.67;;;10.40;99.90;;;;;;4996600;28;20030;-94
2024/03/15 01:52:33;;;;;;;9.18;2.17;;;10.30;99.90;;;;;;4997816;28;20023;-94
2024/03/15 01:54:59;;;;;;;;;;;10.30;99.90;;;;;;4998825;28;20538;-94
2024/03/15 01:57:24;;;;;;;9.10;1.88;;;10.30;99.90;;;;;;5000424;28;19914;-93
2024/03/15 01:59:50;;;;;;;16.40;2.92;;;10.30;99.90;;;;;;5013881;28;20029;-95
2024/03/15 02:02:16;;;;;;;11.50;1.63;;;10.30;99.90;;;;;;5026397;28;20029;-93
2024/03/15 02:04:54;;;;;;;12.15;1.55;;;10.30;99.90;;;;;;5015138;28;20030;-93
2024/03/15 02:07:27;;;;;;;17.75;2.33;;;10.30;99.90;;;;;;5012813;28;20104;-91
2024/03/15 02:09:57;;;;;;;15.02;3.50;;;10.30;99.90;;;;;;5008628;28;20033;-93
2024/03/15 02:12:23;;;;;;;9.18;1.83;;;10.20;99.90;;;;;;5003601;28;20060;-94
2024/03/15 02:14:50;;;;;;;21.88;3.78;;;10.20;99.90;;;;;;5001468;28;20055;-93
2024/03/15 02:17:16;;;;;;;19.73;2.08;;;10.20;99.90;;;;;;5016342;28;20014;-93
2024/03/15 02:19:44;;;;;;;16.15;2.28;;;10.20;99.90;;;;;;5017724;28;20174;-93
2024/03/15 02:22:11;;;;;;;23.85;2.83;;;10.30;99.90;;;;;;4993808;28;20017;-92
2024/03/15 02:24:37;;;;;;;16.10;3.00;;;10.20;99.90;;;;;;5010648;28;20037;-94
2024/03/15 02:27:05;;;;;;;14.43;2.22;;;10.20;99.90;;;;;;5010817;28;20029;-94
2024/03/15 02:29:30;;;;;;;12.55;2.13;;;10.20;99.90;;;;;;4992841;28;20084;-94
2024/03/15 02:31:56;;;;;;;10.40;2.40;;;10.20;99.90;;;;;;5011302;28;20093;-94
2024/03/15 02:34:22;;;;;;;15.07;2.05;;;10.20;99.90;;;;;;4993135;28;20026;-93
2024/03/15 02:36:48;;;;;;;12.32;2.13;;;10.20;99.90;;;;;;4993738;28;20080;-93
2024/03/15 02:39:16;;;;;;;16.40;2.50;;;10.10;99.90;;;;;;4992015;28;20076;-93
2024/03/15 02:41:46;;;;;;;15.38;2.28;;;10.10;99.90;;;;;;4992991;28;20071;-93
2024/03/15 02:44:15;;;;;;;17.53;2.33;;;10.10;99.90;;;;;;4993148;28;20418;-93
2024/03/15 02:46:41;;;;;;;18.58;2.38;;;10.10;99.90;;;;;;4991292;28;20053;-93
2024/03/15 02:49:07;;;;;;;22.33;4.10;;;10.00;99.90;;;;;;4992694;28;20023;-94
2024/03/15 02:51:33;;;;;;;14.70;2.20;;;10.00;99.90;;;;;;4979417;28;20049;-93
2024/03/15 02:53:59;;;;;;;22.65;4.30;;;10.00;99.90;;;;;;5010030;28;20083;-95
2024/03/15 02:56:25;;;;;;;17.27;3.08;;;10.10;99.90;;;;;;4992907;28;20034;-93
2024/03/15 02:58:50;;;;;;;22.67;3.00;;;10.00;99.90;;;;;;5011662;28;20101;-92
2024/03/15 03:01:16;;;;;;;24.38;2.60;;;10.00;99.90;;;;;;4992126;28;20026;-93
2024/03/15 03:03:42;;;;;;;21.25;2.50;;;10.00;99.90;;;;;;5010367;28;20130;-93
2024/03/15 03:06:09;;;;;;;13.52;2.28;;;10.00;99.90;;;;;;4991266;28;20022;-93
2024/03/15 03:08:35;;;;;;;21.95;3.70;;;10.00;99.90;;;;;;5008730;28;20018;-93
2024/03/15 03:11:06;;;;;;;28.70;4.75;;;10.00;99.90;;;;;;4992189;28;20049;-94
2024/03/15 03:13:37;;;;;;;23.90;3.00;;;10.00;99.90;;;;;;5009157;28;20010;-93
2024/03/15 03:16:07;;;;;;;17.15;2.42;;;10.00;99.90;;;;;;4991924;28;20495;-94
2024/03/15 03:18:32;;;;;;;18.17;2.40;;;10.00;99.90;;;;;;5008437;28;20018;-94
2024/03/15 03:20:59;;;;;;;24.60;3.08;;;9.90;99.90;;;;;;5009571;28;20109;-94
2024/03/15 03:23:26;;;;;;;21.98;3.33;;;9.90;99.90;;;;;;5009552;28;20353;-94
2024/03/15 03:25:53;;;;;;;19.45;2.70;;;9.90;99.90;;;;;;4991199;28;20026;-93
2024/03/15 03:28:20;;;;;;;22.20;2.90;;;9.90;99.90;;;;;;5010119;28;20509;-96
2024/03/15 03:30:46;;;;;;;11.57;2.08;;;9.90;99.90;;;;;;4991594;28;20046;-93
2024/03/15 03:33:13;;;;;;;18.95;1.77;;;9.90;99.90;;;;;;4991806;28;20126;-94
2024/03/15 03:35:41;;;;;;;21.55;2.90;;;9.90;99.90;;;;;;4992060;28;20026;-94
2024/03/15 03:38:07;;;;;;;28.02;3.40;;;9.90;99.90;;;;;;4991639;28;20018;-95
2024/03/15 03:40:33;;;;;;;18.17;3.10;;;9.90;99.90;;;;;;4992388;28;20033;-95
2024/03/15 03:43:01;;;;;;;18.55;2.47;;;9.90;99.90;;;;;;4992888;28;20020;-94
2024/03/15 03:45:27;;;;;;;17.88;2.42;;;9.90;99.90;;;;;;4991214;28;20030;-95
2024/03/15 03:47:55;;;;;;;18.52;2.90;;;9.90;99.90;;;;;;4990992;28;20050;-93
2024/03/15 03:50:21;;;;;;;15.55;2.40;;;9.90;99.90;;;;;;4992521;28;20038;-93
2024/03/15 03:52:48;;;;;;;25.85;3.33;;;9.90;99.90;;;;;;4991375;28;20022;-93
2024/03/15 03:55:17;;;;;;;17.48;2.33;;;9.90;99.90;;;;;;4991046;28;20395;-95
2024/03/15 03:57:43;;;;;;;17.13;2.22;;;9.90;99.90;;;;;;4990916;28;20018;-94
2024/03/15 04:00:16;;;;;;;17.05;3.45;;;9.90;99.90;;;;;;4990898;28;20029;-94
2024/03/15 04:02:49;;;;;;;14.90;1.95;;;9.80;99.90;;;;;;5007423;28;20030;-93
2024/03/15 04:05:20;;;;;;;17.35;2.05;;;9.80;99.90;;;;;;4990919;28;20109;-94
2024/03/15 04:07:46;;;;;;;17.17;2.10;;;9.70;99.90;;;;;;4991476;28;20037;-93
2024/03/15 04:10:13;;;;;;;16.17;2.17;;;9.70;99.90;;;;;;5006603;28;20022;-93
2024/03/15 04:12:40;;;;;;;19.08;3.03;;;9.60;99.90;;;;;;4990632;28;20488;-92
2024/03/15 04:15:07;;;;;;;15.10;2.00;;;9.60;99.90;;;;;;5008157;28;20024;-92
2024/03/15 04:17:34;;;;;;;21.45;2.17;;;9.60;99.90;;;;;;4991415;28;20026;-93
2024/03/15 04:20:01;;;;;;;18.95;2.50;;;9.60;99.90;;;;;;4989492;28;20030;-92
2024/03/15 04:22:27;;;;;;;15.63;2.00;;;9.60;99.90;;;;;;5007970;28;20022;-91
2024/03/15 04:24:54;;;;;;;11.68;1.90;;;9.60;99.90;;;;;;4990692;28;20037;-91
2024/03/15 04:27:23;;;;;;;12.80;1.70;;;9.60;99.90;;;;;;5007177;28;20030;-92
2024/03/15 04:29:48;;;;;;;13.82;2.30;;;9.60;99.90;;;;;;4990511;28;20026;-91
2024/03/15 04:32:14;;;;;;;15.63;2.03;;;9.60;99.90;;;;;;4989812;28;20034;-92
2024/03/15 04:34:41;;;;;;;10.30;1.95;;;9.60;99.90;;;;;;4990831;28;20034;-92
2024/03/15 04:37:09;;;;;;;7.75;1.00;;;9.60;99.90;;;;;;4990814;28;20503;-92
2024/03/15 04:39:35;;;;;;;8.05;1.45;;;9.60;99.90;;;;;;4989515;28;20084;-93
2024/03/15 04:42:05;;;;;;;7.72;1.20;;;9.70;99.90;;;;;;4990562;28;20033;-91
2024/03/15 04:44:36;;;;;;;8.98;0.88;;;9.70;99.90;;;;;;4991192;28;20517;-92
2024/03/15 04:47:08;;;;;;;5.28;0.88;;;9.70;99.90;;;;;;4991591;28;20137;-91
2024/03/15 04:52:00;;;;;;;7.85;1.20;;;9.70;99.90;;;;;;5198294;22;20062;-91
2024/03/15 04:54:26;;;;;;;4.70;0.80;;;9.70;99.90;;;;;;4992102;28;20033;-92
2024/03/15 04:56:51;;;;;;;10.18;1.15;;;9.80;99.90;;;;;;4975364;28;20101;-91
2024/03/15 04:59:17;;;;;;;8.98;1.15;;;9.70;99.90;;;;;;4977926;28;20550;-91
2024/03/15 05:01:43;;;;;;;7.25;1.00;;;9.70;99.90;;;;;;4993626;28;20056;-92
2024/03/15 05:04:09;;;;;;;9.32;1.30;;;9.80;99.90;;;;;;4978921;28;20502;-91
2024/03/15 05:06:35;;;;;;;5.32;1.20;;;9.80;99.90;;;;;;4981821;28;20030;-92
2024/03/15 05:09:01;;;;;;;9.10;1.60;;;9.80;99.90;;;;;;4981321;28;20087;-92
2024/03/15 05:11:27;;;;;;;6.50;1.35;;;9.80;99.90;;;;;;4995325;28;20035;-92
2024/03/15 05:13:53;;;;;;;7.82;1.48;;;9.80;99.90;;;;;;4979794;28;20038;-91
2024/03/15 05:16:18;;;;;;;6.07;0.98;;;9.80;99.90;;;;;;4993039;28;20474;-92
2024/03/15 05:18:44;;;;;;;10.23;2.47;;;9.80;99.90;;;;;;4993788;28;20053;-92
2024/03/15 05:21:10;;;;;;;9.40;1.67;;;9.80;99.90;;;;;;4992704;28;20430;-92
2024/03/15 05:23:37;;;;;;;17.77;2.05;;;9.80;99.90;;;;;;4977141;28;20376;-92
2024/03/15 05:26:05;;;;;;;12.63;1.42;;;9.80;99.90;;;;;;4992394;28;20025;-92
2024/03/15 05:28:32;;;;;;;11.38;2.15;;;9.80;99.90;;;;;;4977304;28;20030;-93
2024/03/15 05:30:58;;;;;;;9.75;1.50;;;9.80;99.90;;;;;;4977604;28;20034;-93
2024/03/15 05:33:24;;;;;;;16.60;2.35;;;9.80;99.90;;;;;;4977428;28;20475;-92
2024/03/15 05:35:51;;;;;;;12.23;1.63;;;9.80;99.90;;;;;;4978697;28;20038;-92
2024/03/15 05:38:17;;;;;;;13.07;2.00;;;9.80;99.90;;;;;;4992257;28;20022;-92
2024/03/15 05:40:43;;;;;;;12.65;1.90;;;9.80;99.90;;;;;;4979061;28;20033;-92
2024/03/15 05:43:08;;;;;;;8.30;1.48;;;9.80;99.90;;;;;;4984126;28;20022;-92
2024/03/15 05:45:35;;;;;;;9.18;1.13;;;9.80;99.90;;;;;;4997652;28;20070;-92
2024/03/15 05:48:01;;;;;;;9.43;1.58;;;9.90;99.90;;;;;;4997300;28;20018;-92
2024/03/15 05:50:26;;;;;;;13.35;1.52;;;9.90;99.90;;;;;;4979923;28;20058;-92
2024/03/15 05:52:52;;;;;;;4.22;1.00;;;9.90;99.90;;;;;;4977975;28;20411;-93
2024/03/15 05:55:18;;;;;;;6.82;1.30;;;9.90;99.90;;;;;;4991793;28;20077;-92
2024/03/15 05:57:44;;;;;;;6.45;1.10;;;9.90;99.90;;;;;;4992064;28;20018;-92
2024/03/15 06:00:13;;;;;;;8.07;1.33;;;9.90;99.90;;;;;;4977610;28;20034;-91
2024/03/15 06:02:39;;;;;;;7.15;1.10;;;9.90;99.90;;;;;;4977332;28;20036;-92
2024/03/15 06:05:05;;;;;;;11.35;1.38;;;9.90;99.90;;;;;;4977162;28;20089;-91
2024/03/15 06:07:32;;;;;;;9.15;1.58;;;9.90;99.90;;;;;;4976768;28;20105;-92
2024/03/15 06:09:57;;;;;;;7.32;1.45;;;9.90;99.90;;;;;;4976195;28;20018;-92
2024/03/15 06:12:27;;;;;;;12.88;1.25;;;9.80;99.90;;;;;;4976385;28;20046;-92
2024/03/15 06:14:56;;;;;;;6.68;2.05;;;9.80;99.90;;;;;;4990747;28;20109;-92
2024/03/15 06:17:22;;;;;;;5.85;1.23;;;9.80;99.90;;;;;;4990346;28;20037;-91
2024/03/15 06:19:52;;;;;;;3.60;1.40;;;9.80;99.90;;;;;;4976150;28;20590;-91
2024/03/15 06:22:18;;;;;;;4.35;1.20;;;9.80;99.90;;;;;;4992513;28;20023;-92
2024/03/15 06:24:47;;;;;;;9.55;1.30;;;9.80;99.90;;;;;;4978692;28;20026;-92
2024/03/15 06:27:13;;;;;;;4.32;1.88;;;9.80;99.90;;;;;;4992549;28;20022;-91
2024/03/15 06:29:50;;;;;;;11.52;1.98;;;9.80;99.90;;;;;;4993257;28;20121;-91
2024/03/15 06:32:17;;;;;;;9.35;1.85;;;9.80;99.90;;;;;;4977359;28;20034;-93
2024/03/15 06:34:44;;;;;;;13.70;2.30;;;9.80;99.90;;;;;;4976468;28;20025;-91
2024/03/15 06:37:14;;;;;;;12.10;2.42;;;9.80;99.90;;;;;;4990572;28;20029;-93
2024/03/15 06:42:34;;;;;;;15.00;2.15;;;9.80;99.90;;;;;;5004995;28;20113;-90
2024/03/15 06:45:08;;;;;;;11.02;2.42;;;9.80;99.90;;;;;;4990292;28;20054;-89
2024/03/15 06:47:34;;;;;;;15.70;3.67;;;9.80;99.90;;;;;;4991576;28;20022;-92
2024/03/15 06:50:30;;;;;;;14.82;2.75;;;9.80;99.90;;;;;;4989431;28;20029;-91
2024/03/15 06:52:46;;;;;;;13.48;2.40;;;9.80;99.90;;;;;;4989876;28;20034;-91
2024/03/15 06:55:11;;;;;;;11.68;2.47;;;9.80;99.90;;;;;;4975926;28;20537;-91
2024/03/15 06:57:40;;;;;;;13.95;2.53;;;9.80;99.90;;;;;;4991445;28;20068;-91
2024/03/15 07:00:10;;;;;;;10.55;2.58;;;9.80;99.90;;;;;;4975880;28;20073;-92
2024/03/15 07:02:41;;;;;;;15.80;2.72;;;9.80;99.90;;;;;;4990522;28;20031;-93
2024/03/15 07:05:07;;;;;;;13.45;1.80;;;9.80;99.90;;;;;;4975950;28;20014;-94
2024/03/15 07:07:40;;;;;;;17.17;3.20;;;9.80;99.90;;;;;;4991287;28;20045;-93
2024/03/15 07:10:07;;;;;;;13.35;3.10;;;9.80;99.90;;;;;;4991221;28;20070;-94
2024/03/15 07:12:32;;;;;;;21.70;2.42;;;9.90;99.90;;;;;;4979107;28;20042;-93
2024/03/15 07:14:58;;;;;;;16.17;3.08;;;9.90;99.90;;;;;;5008308;28;20092;-91
2024/03/15 07:17:24;;;;;;;14.63;3.00;;;9.90;99.90;;;;;;5011188;28;20172;-92
2024/03/15 07:19:50;;;;;;;15.93;2.85;;;9.90;99.90;;;;;;5004392;28;20026;-93
2024/03/15 07:22:17;;;;;;;18.42;2.38;;;9.90;99.90;;;;;;4991406;28;20084;-93
2024/03/15 07:24:50;;;;;;;21.98;3.92;;;9.90;99.90;;;;;;4975255;28;20030;-93
2024/03/15 07:27:15;;;;;;;11.00;1.90;;;9.90;99.90;;;;;;4975397;28;20023;-92
2024/03/15 07:29:42;;;;;;;24.20;4.07;;;9.90;99.90;;;;;;4974505;28;20375;-92
2024/03/15 07:32:08;;;;;;;14.15;2.33;;;10.00;99.90;;;;;;4975064;28;20510;-93
2024/03/15 07:34:34;;;;;;;19.38;2.65;;;9.90;99.90;;;;;;4989318;28;20136;-92
2024/03/15 07:37:01;;;;;;;22.25;3.15;;;9.90;99.90;;;;;;4990234;28;20046;-92
2024/03/15 07:39:29;;;;;;;22.42;3.22;;;9.90;99.90;;;;;;4975278;28;20031;-93
2024/03/15 07:42:01;;;;;;;17.85;3.15;;;9.90;99.90;;;;;;4971829;28;20416;-92
2024/03/15 07:44:28;;;;;;;16.50;2.28;;;9.90;99.90;;;;;;4989387;28;20093;-91
2024/03/15 07:46:56;;;;;;;24.33;2.90;;;10.00;99.90;;;;;;4988509;28;20034;-91
2024/03/15 07:49:24;;;;;;;23.77;4.25;;;10.00;99.90;;;;;;4971370;28;20058;-91
2024/03/15 07:51:50;;;;;;;11.10;2.20;;;10.00;99.90;;;;;;4972683;28;20047;-93
2024/03/15 07:54:23;;;;;;;25.52;3.65;;;10.00;99.90;;;;;;4975375;28;20026;-92
2024/03/15 07:56:49;;;;;;;26.45;3.58;;;10.00;99.90;;;;;;4990764;28;20084;-92
2024/03/15 07:59:18;;;;;;;21.60;3.00;;;10.00;99.90;;;;;;4974200;28;20058;-93
2024/03/15 08:01:44;;;;;;;15.25;2.10;;;10.00;99.90;;;;;;4987652;28;20170;-93
2024/03/15 08:04:10;;;;;;;26.58;2.30;;;10.10;99.90;;;;;;4990283;28;20069;-92
2024/03/15 08:06:37;;;;;;;28.65;3.40;;;10.10;99.90;;;;;;4975185;28;20018;-94
2024/03/15 08:09:04;;;;;;;21.77;4.03;;;10.10;99.90;;;;;;4990253;28;20173;-91
2024/03/15 08:11:33;;;;;;;19.92;2.58;;;10.10;99.90;;;;;;4972605;28;20034;-92
2024/03/15 08:14:08;;;;;;;25.65;2.75;;;10.20;99.90;;;;;;4993723;28;20042;-93
2024/03/15 08:16:34;;;;;;;20.92;3.15;;;10.20;99.90;;;;;;4976107;28;20030;-92
2024/03/15 08:19:07;;;;;;;25.80;3.25;;;10.20;99.90;;;;;;4975221;28;20025;-94
2024/03/15 08:21:33;;;;;;;23.15;2.35;;;10.30;99.90;;;;;;4989716;28;20033;-92
2024/03/15 08:24:04;;;;;;;23.35;3.25;;;10.40;99.90;;;;;;4990461;28;20023;-92
2024/03/15 08:26:33;;;;;;;26.50;3.40;;;10.40;99.90;;;;;;4976523;28;20030;-91
2024/03/15 08:29:02;;;;;;;36.95;4.22;;;10.50;99.90;;;;;;4990636;28;20018;-92
2024/03/15 08:31:31;;;;;;;27.88;3.90;;;10.50;99.90;;;;;;4975662;28;20381;-92
2024/03/15 08:34:01;;;;;;;29.63;3.17;;;10.60;99.90;;;;;;4995643;28;20053;-91
2024/03/15 08:36:36;;;;;;;23.35;3.28;;;10.70;99.90;;;;;;4995672;28;20034;-92
2024/03/15 08:39:04;;;;;;;17.45;2.20;;;10.70;99.90;;;;;;4979741;28;20050;-92
2024/03/15 08:41:30;;;;;;;21.55;3.65;;;10.80;99.90;;;;;;4979307;28;20023;-91
2024/03/15 08:43:56;;;;;;;18.77;3.33;;;10.80;99.90;;;;;;4996335;28;20418;-91
2024/03/15 08:46:21;;;;;;;23.33;2.60;;;10.80;99.90;;;;;;4978015;28;20025;-93
2024/03/15 08:48:50;;;;;;;23.00;3.00;;;10.90;99.90;;;;;;4996091;28;20031;-92
2024/03/15 08:51:16;;;;;;;18.60;2.40;;;10.80;99.90;;;;;;4978959;28;20038;-93
2024/03/15 08:53:42;;;;;;;19.75;3.15;;;10.90;99.90;;;;;;4978607;28;20065;-93
2024/03/15 08:56:07;;;;;;;21.58;3.13;;;10.90;99.90;;;;;;4975694;28;20031;-93
2024/03/15 08:58:33;;;;;;;19.73;3.08;;;10.90;99.90;;;;;;4978665;28;20109;-92
2024/03/15 09:01:04;;;;;;;17.42;2.92;;;10.90;99.90;;;;;;4981038;28;20026;-90
2024/03/15 09:03:30;;;;;;;26.20;3.30;;;11.00;99.90;;;;;;4984077;28;20025;-92
2024/03/15 09:05:55;;;;;;;23.35;2.47;;;11.00;99.90;;;;;;4980873;28;20030;-91
2024/03/15 09:08:21;;;;;;;25.63;2.85;;;11.00;99.90;;;;;;4977759;28;20054;-93
2024/03/15 09:10:47;;;;;;;21.60;3.63;;;11.10;99.90;;;;;;4977333;28;20030;-93
2024/03/15 09:13:12;;;;;;;19.95;2.97;;;11.10;99.90;;;;;;4977128;28;20030;-93
2024/03/15 09:15:38;;;;;;;20.67;2.55;;;11.20;99.90;;;;;;4975348;28;20022;-92
2024/03/15 09:18:06;;;;;;;25.90;3.10;;;11.20;99.90;;;;;;4981768;28;20028;-93
2024/03/15 09:22:58;;;;;;;22.75;2.10;;;11.30;99.90;;;;;;4993197;28;20025;-92
2024/03/15 09:25:25;;;;;;;16.75;2.53;;;11.30;99.90;;;;;;5002037;28;20594;-94
2024/03/15 09:27:55;;;;;;;19.17;2.40;;;11.40;99.90;;;;;;4984297;28;20023;-92
2024/03/15 09:33:11;;;;;;;16.58;2.50;;;11.50;99.90;;;;;;5012804;28;20080;-93
2024/03/15 09:35:40;;;;;;;19.08;2.70;;;11.60;99.90;;;;;;5011741;28;20368;-92
2024/03/15 09:38:07;;;;;;;21.98;2.50;;;11.60;99.90;;;;;;4993098;28;20094;-91
2024/03/15 09:40:33;;;;;;;15.45;2.70;;;11.60;99.90;;;;;;4993346;28;20030;-92
2024/03/15 09:42:59;;;;;;;22.50;3.53;;;11.70;99.90;;;;;;4990618;28;20045;-94
2024/03/15 09:45:26;;;;;;;21.90;3.70;;;11.70;99.90;;;;;;4986635;28;20098;-92
2024/03/15 09:47:53;;;;;;;18.50;3.00;;;11.80;99.90;;;;;;4985028;28;20104;-93
2024/03/15 09:50:24;;;;;;;15.43;3.10;;;11.80;99.90;;;;;;5001081;28;20086;-95
2024/03/15 09:52:55;;;;;;;19.65;2.55;;;11.90;99.90;;;;;;4982409;28;20054;-95
2024/03/15 09:55:21;;;;;;;;;;;11.90;99.90;;;;;;4978490;28;20118;-93
2024/03/15 09:57:49;;;;;;;18.92;2.08;;;12.00;99.90;;;;;;4997123;28;19910;-94
2024/03/15 10:00:16;;;;;;;21.00;2.65;;;12.00;99.90;;;;;;4977668;28;20122;-95
2024/03/15 10:02:45;;;;;;;16.25;1.98;;;12.10;99.90;;;;;;4978777;28;20353;-95
2024/03/15 10:05:12;;;;;;;20.85;2.70;;;12.20;99.90;;;;;;4998182;28;20029;-93
2024/03/15 10:07:38;;;;;;;14.55;2.72;;;12.20;99.90;;;;;;4975834;28;20062;-95
2024/03/15 10:10:11;;;;;;;16.70;3.03;;;12.30;99.90;;;;;;4994492;28;20031;-94
2024/03/15 10:12:45;;;;;;;17.65;2.58;;;12.50;99.90;;;;;;4994155;28;20046;-93
2024/03/15 10:15:12;;;;;;;23.67;2.97;;;12.60;99.90;;;;;;4975992;28;20030;-95
2024/03/15 10:17:43;;;;;;;18.55;3.92;;;12.70;99.90;;;;;;4992122;28;20356;-93
2024/03/15 10:20:16;;;;;;;;;;;12.80;99.90;;;;;;4993787;28;20113;-94
2024/03/15 10:22:42;;;;;;;25.90;2.53;;;12.90;99.90;;;;;;4975014;28;19906;-93
2024/03/15 10:25:16;;;;;;;15.15;2.30;;;13.00;99.90;;;;;;4991244;28;20161;-94
2024/03/15 10:27:45;;;;;;;14.90;2.08;;;13.00;99.90;;;;;;4996228;28;20049;-95
2024/03/15 10:30:16;;;;;;;11.15;1.80;;;13.00;99.90;;;;;;4978477;28;20074;-93
2024/03/15 10:32:46;;;;;;;15.00;2.70;;;13.00;99.90;;;;;;4999349;28;20022;-94
2024/03/15 10:35:13;;;;;;;15.07;2.13;;;12.90;99.90;;;;;;5001750;28;20022;-90
2024/03/15 10:37:43;;;;;;;15.02;2.08;;;12.90;99.90;;;;;;5001775;28;20030;-93
2024/03/15 10:40:18;;;;;;;15.00;1.80;;;12.80;99.90;;;;;;5001466;28;20037;-94
2024/03/15 10:42:48;;;;;;;14.52;2.22;;;12.80;99.90;;;;;;5001469;28;20086;-92
2024/03/15 10:45:23;;;;;;;10.38;2.20;;;12.90;99.90;;;;;;5017766;28;20044;-92
2024/03/15 10:47:51;;;;;;;10.80;2.58;;;13.00;99.90;;;;;;5000750;28;20031;-93
2024/03/15 10:50:25;;;;;;;18.33;3.10;;;13.20;99.90;;;;;;5001607;28;20096;-93
2024/03/15 10:52:52;;;;;;;14.77;2.03;;;13.30;99.90;;;;;;4998565;28;20099;-92
2024/03/15 10:55:23;;;;;;;15.18;1.85;;;13.40;99.90;;;;;;4999514;28;20046;-92
2024/03/15 10:57:53;;;;;;;14.10;2.03;;;13.30;99.90;;;;;;4998614;28;20021;-91
2024/03/15 11:00:26;;;;;;;;;;;13.30;99.90;;;;;;5000236;28;20038;-92
2024/03/15 11:02:57;;;;;;;16.88;2.33;;;13.20;99.90;;;;;;4999497;28;19917;-93
2024/03/15 11:05:24;;;;;;;;;;;13.10;99.90;;;;;;5000559;28;20030;-92
2024/03/15 11:08:04;;;;;;;8.15;1.23;;;13.10;99.90;;;;;;5000135;28;19898;-91
2024/03/15 11:10:31;;;;;;;12.23;2.15;;;13.00;99.90;;;;;;5000609;28;20034;-91
2024/03/15 11:13:03;;;;;;;8.50;1.55;;;12.90;99.90;;;;;;5000663;28;20025;-93
2024/03/15 11:15:33;;;;;;;12.60;1.73;;;12.80;99.90;;;;;;5017893;28;20030;-92
2024/03/15 11:18:03;;;;;;;10.45;1.65;;;12.80;99.90;;;;;;5000747;28;20021;-94
2024/03/15 11:20:53;;;;;;;11.48;1.80;;;12.80;99.90;;;;;;5000704;28;20010;-93
2024/03/15 11:23:26;;;;;;;12.93;1.45;;;12.80;99.90;;;;;;5017022;28;20052;-91
2024/03/15 11:25:54;;;;;;;10.23;2.08;;;12.80;99.90;;;;;;4999334;28;20010;-92
2024/03/15 11:28:20;;;;;;;9.13;1.30;;;12.70;99.90;;;;;;5000694;28;20053;-92
2024/03/15 11:30:46;;;;;;;7.07;1.38;;;12.70;99.90;;;;;;5000199;28;20022;-91
2024/03/15 11:33:12;;;;;;;9.60;1.27;;;12.60;99.90;;;;;;4999050;28;20058;-92
2024/03/15 11:35:41;;;;;;;13.90;1.55;;;12.60;99.90;;;;;;4999792;28;20006;-91
2024/03/15 11:38:13;;;;;;;5.32;1.10;;;12.50;99.90;;;;;;5000396;28;20086;-91
2024/03/15 11:40:40;;;;;;;7.38;1.20;;;12.50;99.90;;;;;;4999641;28;20094;-92
2024/03/15 11:43:14;;;;;;;10.93;1.73;;;12.50;99.90;;;;;;5000370;28;20041;-93
2024/03/15 11:45:49;;;;;;;5.68;1.40;;;12.50;99.90;;;;;;4999999;28;20010;-94
2024/03/15 11:48:20;;;;;;;11.80;1.10;;;12.40;99.90;;;;;;5000192;28;20015;-92
2024/03/15 11:50:48;;;;;;;5.63;1.20;;;12.40;99.90;;;;;;4998909;28;20231;-96
2024/03/15 11:53:16;;;;;;;10.90;1.40;;;12.40;99.90;;;;;;4997273;28;20037;-91
2024/03/15 11:55:42;;;;;;;9.80;1.70;;;12.30;99.90;;;;;;4999588;28;20023;-90
2024/03/15 11:58:19;;;;;;;11.57;1.77;;;12.20;99.90;;;;;;4999981;28;20030;-92
2024/03/15 12:00:53;;;;;;;9.15;1.45;;;12.20;99.90;;;;;;4998563;28;20077;-90
2024/03/15 12:03:27;;;;;;;6.00;1.02;;;12.10;99.90;;;;;;4999964;28;20038;-89
2024/03/15 12:05:55;;;;;;;5.45;0.95;;;11.90;99.90;;;;;;4999765;28;20077;-92
2024/03/15 12:08:22;;;;;;;8.82;1.60;;;11.90;99.90;;;;;;4998632;28;20038;-92
2024/03/15 12:10:52;;;;;;;5.85;1.20;;;11.80;99.90;;;;;;4999352;28;20019;-92
2024/03/15 12:13:19;;;;;;;7.32;1.20;;;11.80;99.90;;;;;;4999873;28;20018;-90
2024/03/15 12:15:46;;;;;;;7.57;1.67;;;11.70;99.90;;;;;;4999935;28;20869;-90
2024/03/15 12:18:22;;;;;;;7.57;1.02;;;11.70;99.90;;;;;;4999405;28;20026;-91
2024/03/15 12:20:52;;;;;;;11.32;1.35;;;11.70;99.90;;;;;;5000127;28;20022;-90
2024/03/15 12:23:20;;;;;;;7.83;0.87;;;11.70;99.90;;;;;;4999913;28;20019;-91
2024/03/15 12:25:46;;;;;;;8.07;1.77;;;11.70;99.90;;;;;;4999590;28;20341;-89
2024/03/15 12:28:14;;;;;;;5.95;0.88;;;11.70;99.90;;;;;;4999197;28;20054;-94
2024/03/15 12:30:42;;;;;;;10.88;1.92;;;11.80;99.90;;;;;;4999988;28;20030;-91
2024/03/15 12:33:11;;;;;;;7.00;1.33;;;11.80;99.90;;;;;;4999048;28;20031;-92
2024/03/15 12:35:37;;;;;;;7.00;1.02;;;11.90;99.90;;;;;;4999238;28;20019;-95
2024/03/15 12:38:05;;;;;;;12.70;1.55;;;12.00;99.90;;;;;;4999486;28;20030;-92
2024/03/15 12:40:31;;;;;;;5.53;1.05;;;12.10;99.90;;;;;;4997797;28;20030;-94
2024/03/15 12:42:57;;;;;;;7.90;1.65;;;12.20;99.90;;;;;;4996772;28;20085;-94
2024/03/15 12:45:22;;;;;;;8.20;1.00;;;12.40;99.90;;;;;;4986882;28;20049;-96
2024/03/15 12:47:48;;;;;;;6.40;1.70;;;12.50;99.90;;;;;;4979204;28;20038;-94
2024/03/15 12:50:17;;;;;;;8.10;1.52;;;12.50;99.90;;;;;;4979654;28;20073;-95
2024/03/15 12:52:43;;;;;;;9.60;1.40;;;12.60;99.90;;;;;;4977400;28;20057;-93
2024/03/15 12:55:14;;;;;;;5.90;1.33;;;12.60;99.90;;;;;;4979448;28;20505;-95
2024/03/15 12:57:41;;;;;;;6.40;1.30;;;12.50;99.90;;;;;;4978830;28;20375;-94
2024/03/15 13:00:12;;;;;;;5.07;1.20;;;12.40;99.90;;;;;;4978576;28;20030;-94